Terminal Aerodrome Forecast
Issued by NWS

Home | Current Version | Previous Version | Text Only | Print | Product List | Glossary On
Versions: 1 2 3 4 5 6 7 8 9 10 11 12 13 14 15 16 17 18 19 20 21 22 23 24 25 26 27
000
FTAK31 PAJN 200500
TAFAWG
TAF
PAWG 200520Z 2006/2106 09006KT P6SM -SHRA BKN040 OVC060
     FM201200 12005KT P6SM -SHRA SCT025 OVC040
     FM201800 12008KT 6SM -SHRA BR BKN025 OVC040
     FM202100 14008KT P6SM -SHRA BKN040 OVC060
     FM210300 12006KT P6SM -SHRA SCT025 BKN050
      AMD LTD TO CLD VIS AND WIND 2006/2015=

USA.gov is the U.S. government's official web portal to all federal, state and local government web resources and services.